sensor_id;sensor_type;location;lat;lon;timestamp;pressure;altitude;pressure_sealevel;temperature;humidity
17950;BME280;9100;48.700;9.316;2022-08-21T00:00:44;97821.5;;;18.02;100
17950;BME280;9100;48.700;9.316;2022-08-21T00:01:44;97823.29999999999;;;18.01;100
17950;BME280;9100;48.700;9.316;2022-08-21T00:01:56;97821.8;;;18;100
17950;BME280;9100;48.700;9.316;2022-08-21T00:02:45;97817.4;;;18.01;100
17950;BME280;9100;48.700;9.316;2022-08-21T00:03:45;97824.3;;;18;100
17950;BME280;9100;48.700;9.316;2022-08-21T00:04:45;97816.6;;;18;100
17950;BME280;9100;48.700;9.316;2022-08-21T00:05:45;97830;;;17.97;100
17950;BME280;9100;48.700;9.316;2022-08-21T00:06:44;97821.6;;;17.95;100
17950;BME280;9100;48.700;9.316;2022-08-21T00:06:56;97820.8;;;17.94;100
17950;BME280;9100;48.700;9.316;2022-08-21T00:07:44;97821.6;;;17.95;100
17950;BME280;9100;48.700;9.316;2022-08-21T00:08:44;97815.4;;;17.96;100
17950;BME280;9100;48.700;9.316;2022-08-21T00:09:45;97763.59999999999;;;17.61;100
17950;BME280;9100;48.700;9.316;2022-08-21T00:10:45;97820.6;;;17.96;100
17950;BME280;9100;48.700;9.316;2022-08-21T00:11:44;97814.59999999999;;;17.96;100
17950;BME280;9100;48.700;9.316;2022-08-21T00:11:56;97815.7;;;17.94;100
17950;BME280;9100;48.700;9.316;2022-08-21T00:12:44;97818;;;17.96;100
17950;BME280;9100;48.700;9.316;2022-08-21T00:13:45;97826.8;;;17.95;100
17950;BME280;9100;48.700;9.316;2022-08-21T00:14:44;97822.6;;;17.94;100
17950;BME280;9100;48.700;9.316;2022-08-21T00:15:45;97766.6;;;17.58;100
17950;BME280;9100;48.700;9.316;2022-08-21T00:16:45;97821.1;;;17.93;100
17950;BME280;9100;48.700;9.316;2022-08-21T00:16:56;97818.5;;;17.93;100
17950;BME280;9100;48.700;9.316;2022-08-21T00:17:44;97819.3;;;17.93;100
17950;BME280;9100;48.700;9.316;2022-08-21T00:18:45;97816.9;;;17.92;100
17950;BME280;9100;48.700;9.316;2022-08-21T00:19:44;97816.09999999999;;;17.91;100
17950;BME280;9100;48.700;9.316;2022-08-21T00:20:45;97822.29999999999;;;17.9;100
17950;BME280;9100;48.700;9.316;2022-08-21T00:21:45;97813.8;;;17.9;100
17950;BME280;9100;48.700;9.316;2022-08-21T00:21:56;97815.5;;;17.89;100
17950;BME280;9100;48.700;9.316;2022-08-21T00:22:45;97815.3;;;17.91;100
17950;BME280;9100;48.700;9.316;2022-08-21T00:23:44;97822.29999999999;;;17.9;100
17950;BME280;9100;48.700;9.316;2022-08-21T00:24:44;97820.7;;;17.89;100
17950;BME280;9100;48.700;9.316;2022-08-21T00:25:44;97820.9;;;17.88;100
17950;BME280;9100;48.700;9.316;2022-08-21T00:26:44;97815.4;;;17.84;100
17950;BME280;9100;48.700;9.316;2022-08-21T00:26:56;97825;;;17.84;100
17950;BME280;9100;48.700;9.316;2022-08-21T00:27:45;97825.8;;;17.84;100
17950;BME280;9100;48.700;9.316;2022-08-21T00:28:44;97814.09999999999;;;17.82;100
17950;BME280;9100;48.700;9.316;2022-08-21T00:29:44;97813;;;17.83;100
17950;BME280;9100;48.700;9.316;2022-08-21T00:30:44;97810.7;;;17.81;100
17950;BME280;9100;48.700;9.316;2022-08-21T00:31:44;97816.3;;;17.78;100
17950;BME280;9100;48.700;9.316;2022-08-21T00:31:56;97807;;;17.77;100
17950;BME280;9100;48.700;9.316;2022-08-21T00:32:45;97803.59999999999;;;17.77;100
17950;BME280;9100;48.700;9.316;2022-08-21T00:33:44;97810.79999999999;;;17.75;100
17950;BME280;9100;48.700;9.316;2022-08-21T00:34:44;97800.9;;;17.72;100
17950;BME280;9100;48.700;9.316;2022-08-21T00:35:44;97802.9;;;17.7;100
17950;BME280;9100;48.700;9.316;2022-08-21T00:36:44;97794.3;;;17.69;100
17950;BME280;9100;48.700;9.316;2022-08-21T00:36:56;97802.09999999999;;;17.69;100
17950;BME280;9100;48.700;9.316;2022-08-21T00:37:44;97796.90000000001;;;17.69;100
17950;BME280;9100;48.700;9.316;2022-08-21T00:38:44;97802.9;;;17.7;100
17950;BME280;9100;48.700;9.316;2022-08-21T00:39:44;97802.70000000001;;;17.65;100
17950;BME280;9100;48.700;9.316;2022-08-21T00:40:46;97799.59999999999;;;17.63;100
17950;BME280;9100;48.700;9.316;2022-08-21T00:41:44;97799.8;;;17.61;100
17950;BME280;9100;48.700;9.316;2022-08-21T00:41:56;97799.2;;;17.59;100
17950;BME280;9100;48.700;9.316;2022-08-21T00:42:44;97799.8;;;17.61;100
17950;BME280;9100;48.700;9.316;2022-08-21T00:43:44;97805;;;17.61;100
17950;BME280;9100;48.700;9.316;2022-08-21T00:44:45;97803.4;;;17.6;100
17950;BME280;9100;48.700;9.316;2022-08-21T00:45:44;97799.2;;;17.59;100
17950;BME280;9100;48.700;9.316;2022-08-21T00:46:44;97795.5;;;17.55;100
17950;BME280;9100;48.700;9.316;2022-08-21T00:46:56;97798.90000000001;;;17.56;100
17950;BME280;9100;48.700;9.316;2022-08-21T00:47:44;97797.1;;;17.56;100
17950;BME280;9100;48.700;9.316;2022-08-21T00:48:44;97797.1;;;17.56;100
17950;BME280;9100;48.700;9.316;2022-08-21T00:49:45;97791.9;;;17.56;100
17950;BME280;9100;48.700;9.316;2022-08-21T00:50:46;97794.3;;;17.58;100
17950;BME280;9100;48.700;9.316;2022-08-21T00:51:47;97791.09999999999;;;17.56;100
17950;BME280;9100;48.700;9.316;2022-08-21T00:51:57;97791.09999999999;;;17.56;100
17950;BME280;9100;48.700;9.316;2022-08-21T00:52:44;97794.3;;;17.58;100
17950;BME280;9100;48.700;9.316;2022-08-21T00:53:44;97788.3;;;17.57;100
17950;BME280;9100;48.700;9.316;2022-08-21T00:54:45;97795.5;;;17.55;100
17950;BME280;9100;48.700;9.316;2022-08-21T00:55:44;97791.8;;;17.51;100
17950;BME280;9100;48.700;9.316;2022-08-21T00:56:45;97788.8;;;17.48;100
17950;BME280;9100;48.700;9.316;2022-08-21T00:56:57;97788.8;;;17.48;100
17950;BME280;9100;48.700;9.316;2022-08-21T00:57:47;97794;;;17.48;100
17950;BME280;9100;48.700;9.316;2022-08-21T00:58:45;97785.7;;;17.45;100
17950;BME280;9100;48.700;9.316;2022-08-21T00:59:45;97794.4;;;17.44;100
17950;BME280;9100;48.700;9.316;2022-08-21T01:00:46;97793.9;;;17.42;100
17950;BME280;9100;48.700;9.316;2022-08-21T01:01:44;97789.09999999999;;;17.39;100
17950;BME280;9100;48.700;9.316;2022-08-21T01:01:56;97793.3;;;17.4;100
17950;BME280;9100;48.700;9.316;2022-08-21T01:02:45;97798.5;;;17.4;100
17950;BME280;9100;48.700;9.316;2022-08-21T01:03:45;97793.5;;;17.39;100
17950;BME280;9100;48.700;9.316;2022-08-21T01:04:45;97795.3;;;17.38;100
17950;BME280;9100;48.700;9.316;2022-08-21T01:05:45;97796.90000000001;;;17.39;100
17950;BME280;9100;48.700;9.316;2022-08-21T01:06:44;97789;;;17.34;100
17950;BME280;9100;48.700;9.316;2022-08-21T01:06:56;97794.5;;;17.38;100
17950;BME280;9100;48.700;9.316;2022-08-21T01:07:44;97789.09999999999;;;17.39;100
17950;BME280;9100;48.700;9.316;2022-08-21T01:08:44;97792.7;;;17.38;100
17950;BME280;9100;48.700;9.316;2022-08-21T01:09:45;97788.59999999999;;;17.37;100
17950;BME280;9100;48.700;9.316;2022-08-21T01:10:44;97794.9;;;17.35;100
17950;BME280;9100;48.700;9.316;2022-08-21T01:11:44;97785;;;17.32;100
17950;BME280;9100;48.700;9.316;2022-08-21T01:11:56;97785;;;17.32;100
17950;BME280;9100;48.700;9.316;2022-08-21T01:12:45;97784.3;;;17.31;100
17950;BME280;9100;48.700;9.316;2022-08-21T01:13:44;97785.29999999999;;;17.3;100
17950;BME280;9100;48.700;9.316;2022-08-21T01:14:44;97787.09999999999;;;17.3;100
17950;BME280;9100;48.700;9.316;2022-08-21T01:15:46;97783.90000000001;;;17.28;100
17950;BME280;9100;48.700;9.316;2022-08-21T01:16:48;97789.9;;;17.28;100
17950;BME280;9100;48.700;9.316;2022-08-21T01:16:56;97786.5;;;17.28;100
17950;BME280;9100;48.700;9.316;2022-08-21T01:17:44;97783.90000000001;;;17.28;100
17950;BME280;9100;48.700;9.316;2022-08-21T01:18:45;97781.5;;;17.26;100
17950;BME280;9100;48.700;9.316;2022-08-21T01:19:44;97791.9;;;17.26;100
17950;BME280;9100;48.700;9.316;2022-08-21T01:20:50;97787.09999999999;;;17.23;100
17950;BME280;9100;48.700;9.316;2022-08-21T01:21:44;97785;;;17.2;100
17950;BME280;9100;48.700;9.316;2022-08-21T01:21:56;97789.20000000001;;;17.21;100
17950;BME280;9100;48.700;9.316;2022-08-21T01:22:44;97783.2;;;17.21;100
17950;BME280;9100;48.700;9.316;2022-08-21T01:23:46;97786.6;;;17.21;100
17950;BME280;9100;48.700;9.316;2022-08-21T01:24:44;97784.2;;;17.2;100
17950;BME280;9100;48.700;9.316;2022-08-21T01:25:44;97782.4;;;17.2;100
17950;BME280;9100;48.700;9.316;2022-08-21T01:26:45;97786.8;;;17.2;100
17950;BME280;9100;48.700;9.316;2022-08-21T01:26:56;97787.59999999999;;;17.2;100
17950;BME280;9100;48.700;9.316;2022-08-21T01:27:44;97778.8;;;17.21;100
17950;BME280;9100;48.700;9.316;2022-08-21T01:28:45;97784.2;;;17.2;100
17950;BME280;9100;48.700;9.316;2022-08-21T01:29:46;97783.4;;;17.19;100
17950;BME280;9100;48.700;9.316;2022-08-21T01:30:44;97780;;;17.19;100
17950;BME280;9100;48.700;9.316;2022-08-21T01:31:45;97778.5;;;17.18;100
17950;BME280;9100;48.700;9.316;2022-08-21T01:31:56;97780.2;;;17.17;100
17950;BME280;9100;48.700;9.316;2022-08-21T01:32:44;97778.3;;;17.19;100
17950;BME280;9100;48.700;9.316;2022-08-21T01:33:44;97781;;;17.18;100
17950;BME280;9100;48.700;9.316;2022-08-21T01:34:45;97773.29999999999;;;17.18;100
17950;BME280;9100;48.700;9.316;2022-08-21T01:35:45;97777.70000000001;;;17.17;100
17950;BME280;9100;48.700;9.316;2022-08-21T01:36:45;97781.8;;;17.18;100
17950;BME280;9100;48.700;9.316;2022-08-21T01:36:56;97777.70000000001;;;17.17;100
17950;BME280;9100;48.700;9.316;2022-08-21T01:37:44;97772.5;;;17.17;100
17950;BME280;9100;48.700;9.316;2022-08-21T01:38:44;97778.9;;;17.15;100
17950;BME280;9100;48.700;9.316;2022-08-21T01:39:45;97777.3;;;17.14;100
17950;BME280;9100;48.700;9.316;2022-08-21T01:40:44;97780.1;;;17.12;100
17950;BME280;9100;48.700;9.316;2022-08-21T01:41:45;97773.6;;;17.1;100
17950;BME280;9100;48.700;9.316;2022-08-21T01:41:56;97724.1;;;16.76;100
17950;BME280;9100;48.700;9.316;2022-08-21T01:42:45;97771.8;;;17.1;100
17950;BME280;9100;48.700;9.316;2022-08-21T01:43:45;97774.40000000001;;;17.1;100
17950;BME280;9100;48.700;9.316;2022-08-21T01:44:44;97775.40000000001;;;17.09;100
17950;BME280;9100;48.700;9.316;2022-08-21T01:45:44;97779.7;;;17.09;100
17950;BME280;9100;48.700;9.316;2022-08-21T01:46:44;97775.8;;;17.06;100
17950;BME280;9100;48.700;9.316;2022-08-21T01:46:57;97774.2;;;17.05;100
17950;BME280;9100;48.700;9.316;2022-08-21T01:47:45;97775;;;17.06;100
17950;BME280;9100;48.700;9.316;2022-08-21T01:48:45;97779.4;;;17.05;100
17950;BME280;9100;48.700;9.316;2022-08-21T01:49:45;97780.4;;;17.04;100
17950;BME280;9100;48.700;9.316;2022-08-21T01:50:45;97775.3;;;17.04;100
17950;BME280;9100;48.700;9.316;2022-08-21T01:51:45;97778.2;;;17.01;100
17950;BME280;9100;48.700;9.316;2022-08-21T01:51:56;97776.3;;;17.03;100
17950;BME280;9100;48.700;9.316;2022-08-21T01:52:44;97776.3;;;17.03;100
17950;BME280;9100;48.700;9.316;2022-08-21T01:53:45;97772.29999999999;;;17.01;100
17950;BME280;9100;48.700;9.316;2022-08-21T01:54:45;97771.5;;;17;100
17950;BME280;9100;48.700;9.316;2022-08-21T01:55:44;97773.5;;;16.98;100
17950;BME280;9100;48.700;9.316;2022-08-21T01:56:46;97775.3;;;16.97;100
17950;BME280;9100;48.700;9.316;2022-08-21T01:56:56;97768.4;;;16.98;100
17950;BME280;9100;48.700;9.316;2022-08-21T01:57:45;97771.7;;;16.98;100
17950;BME280;9100;48.700;9.316;2022-08-21T01:58:45;97774.3;;;16.98;100
17950;BME280;9100;48.700;9.316;2022-08-21T01:59:45;97774.5;;;16.97;100
17950;BME280;9100;48.700;9.316;2022-08-21T02:00:44;97768.4;;;16.98;100
17950;BME280;9100;48.700;9.316;2022-08-21T02:01:44;97764.4;;;16.95;100
17950;BME280;9100;48.700;9.316;2022-08-21T02:01:56;97769.4;;;16.97;100
17950;BME280;9100;48.700;9.316;2022-08-21T02:02:45;97766.8;;;16.97;100
17950;BME280;9100;48.700;9.316;2022-08-21T02:03:44;97762.59999999999;;;16.96;100
17950;BME280;9100;48.700;9.316;2022-08-21T02:04:44;97759.3;;;16.95;100
17950;BME280;9100;48.700;9.316;2022-08-21T02:05:45;97768.8;;;16.95;100
17950;BME280;9100;48.700;9.316;2022-08-21T02:06:45;97762;;;16.94;100
17950;BME280;9100;48.700;9.316;2022-08-21T02:06:56;97761.2;;;16.93;100
17950;BME280;9100;48.700;9.316;2022-08-21T02:07:46;97762;;;16.94;100
17950;BME280;9100;48.700;9.316;2022-08-21T02:08:45;97761.2;;;16.93;100
17950;BME280;9100;48.700;9.316;2022-08-21T02:09:44;97766.09999999999;;;16.9;100
17950;BME280;9100;48.700;9.316;2022-08-21T02:10:44;97756;;;16.88;100
17950;BME280;9100;48.700;9.316;2022-08-21T02:11:45;97757.9;;;16.86;100
17950;BME280;9100;48.700;9.316;2022-08-21T02:11:56;97757.9;;;16.86;100
17950;BME280;9100;48.700;9.316;2022-08-21T02:12:45;97757;;;16.87;100
17950;BME280;9100;48.700;9.316;2022-08-21T02:13:45;97764.9;;;16.86;100
17950;BME280;9100;48.700;9.316;2022-08-21T02:14:44;97766.9;;;16.84;100
17950;BME280;9100;48.700;9.316;2022-08-21T02:15:44;97769.9;;;16.81;100
17950;BME280;9100;48.700;9.316;2022-08-21T02:16:45;97770.4;;;16.78;100
17950;BME280;9100;48.700;9.316;2022-08-21T02:16:56;97763.4;;;16.78;100
17950;BME280;9100;48.700;9.316;2022-08-21T02:17:46;97769.4;;;16.79;100
17950;BME280;9100;48.700;9.316;2022-08-21T02:18:45;97770.4;;;16.78;100
17950;BME280;9100;48.700;9.316;2022-08-21T02:19:44;97770.1;;;16.79;100
17950;BME280;9100;48.700;9.316;2022-08-21T02:20:46;97766.8;;;16.79;100
17950;BME280;9100;48.700;9.316;2022-08-21T02:21:44;97765.59999999999;;;16.75;100
17950;BME280;9100;48.700;9.316;2022-08-21T02:21:56;97776;;;16.75;100
17950;BME280;9100;48.700;9.316;2022-08-21T02:22:44;97766.8;;;16.72;100
17950;BME280;9100;48.700;9.316;2022-08-21T02:23:45;97768.1;;;16.7;100
17950;BME280;9100;48.700;9.316;2022-08-21T02:24:44;97772.6;;;16.68;100
17950;BME280;9100;48.700;9.316;2022-08-21T02:25:44;97771.1;;;16.67;100
17950;BME280;9100;48.700;9.316;2022-08-21T02:26:44;97760.79999999999;;;16.67;100
17950;BME280;9100;48.700;9.316;2022-08-21T02:26:56;97761;;;16.65;100
17950;BME280;9100;48.700;9.316;2022-08-21T02:27:45;97768.3;;;16.68;100
17950;BME280;9100;48.700;9.316;2022-08-21T02:28:44;97763.09999999999;;;16.68;100
17950;BME280;9100;48.700;9.316;2022-08-21T02:29:44;97765.9;;;16.67;100
17950;BME280;9100;48.700;9.316;2022-08-21T02:30:46;97716.7;;;16.37;100
17950;BME280;9100;48.700;9.316;2022-08-21T02:31:44;97760.40000000001;;;16.63;100
17950;BME280;9100;48.700;9.316;2022-08-21T02:31:56;97759.6;;;16.63;100
17950;BME280;9100;48.700;9.316;2022-08-21T02:32:44;97758.6;;;16.64;100
17950;BME280;9100;48.700;9.316;2022-08-21T02:33:44;97761.2;;;16.64;100
17950;BME280;9100;48.700;9.316;2022-08-21T02:34:44;97756;;;16.64;100
17950;BME280;9100;48.700;9.316;2022-08-21T02:35:46;97756;;;16.64;100
17950;BME280;9100;48.700;9.316;2022-08-21T02:36:44;97755.2;;;16.63;100
17950;BME280;9100;48.700;9.316;2022-08-21T02:36:56;97756;;;16.64;100
17950;BME280;9100;48.700;9.316;2022-08-21T02:37:46;97751.59999999999;;;16.64;100
17950;BME280;9100;48.700;9.316;2022-08-21T02:38:44;97755.8;;;16.65;100
17950;BME280;9100;48.700;9.316;2022-08-21T02:39:45;97755.8;;;16.65;100
17950;BME280;9100;48.700;9.316;2022-08-21T02:40:46;97750.9;;;16.64;100
17950;BME280;9100;48.700;9.316;2022-08-21T02:41:44;97758.8;;;16.62;100
17950;BME280;9100;48.700;9.316;2022-08-21T02:41:56;97763.2;;;16.62;100
17950;BME280;9100;48.700;9.316;2022-08-21T02:42:45;97758.8;;;16.62;100
17950;BME280;9100;48.700;9.316;2022-08-21T02:43:45;97751.3;;;16.61;100
17950;BME280;9100;48.700;9.316;2022-08-21T02:44:44;97698;;;16.23;100
17950;BME280;9100;48.700;9.316;2022-08-21T02:45:46;97756.3;;;16.56;100
17950;BME280;9100;48.700;9.316;2022-08-21T02:46:44;97755.7;;;16.54;100
17950;BME280;9100;48.700;9.316;2022-08-21T02:46:56;97701.3;;;16.19;100
17950;BME280;9100;48.700;9.316;2022-08-21T02:47:46;97753.09999999999;;;16.54;100
17950;BME280;9100;48.700;9.316;2022-08-21T02:48:44;97748.2;;;16.52;100
17950;BME280;9100;48.700;9.316;2022-08-21T02:49:44;97754.1;;;16.53;100
17950;BME280;9100;48.700;9.316;2022-08-21T02:50:46;97762.90000000001;;;16.52;100
17950;BME280;9100;48.700;9.316;2022-08-21T02:51:44;97757.7;;;16.52;100
17950;BME280;9100;48.700;9.316;2022-08-21T02:51:56;97757.9;;;16.5;100
17950;BME280;9100;48.700;9.316;2022-08-21T02:52:44;97757.7;;;16.52;100
17950;BME280;9100;48.700;9.316;2022-08-21T02:53:45;97757.9;;;16.5;100
17950;BME280;9100;48.700;9.316;2022-08-21T02:54:44;97753;;;16.48;100
17950;BME280;9100;48.700;9.316;2022-08-21T02:55:45;97755.7;;;16.47;100
17950;BME280;9100;48.700;9.316;2022-08-21T02:56:44;97759.6;;;16.44;100
17950;BME280;9100;48.700;9.316;2022-08-21T02:56:56;97762.09999999999;;;16.44;100
17950;BME280;9100;48.700;9.316;2022-08-21T02:57:44;97762.09999999999;;;16.44;100
17950;BME280;9100;48.700;9.316;2022-08-21T02:58:45;97759.6;;;16.44;100
17950;BME280;9100;48.700;9.316;2022-08-21T02:59:45;97760.5;;;16.43;100
17950;BME280;9100;48.700;9.316;2022-08-21T03:00:45;97765.9;;;16.42;100
17950;BME280;9100;48.700;9.316;2022-08-21T03:01:45;97701.8;;;16.03;100
17950;BME280;9100;48.700;9.316;2022-08-21T03:01:56;97761.40000000001;;;16.37;100
17950;BME280;9100;48.700;9.316;2022-08-21T03:02:44;97759.79999999999;;;16.36;100
17950;BME280;9100;48.700;9.316;2022-08-21T03:03:45;97758.2;;;16.35;100
17950;BME280;9100;48.700;9.316;2022-08-21T03:04:45;97753.3;;;16.34;100
17950;BME280;9100;48.700;9.316;2022-08-21T03:05:44;97753.5;;;16.32;100
17950;BME280;9100;48.700;9.316;2022-08-21T03:06:45;97758.7;;;16.32;100
17950;BME280;9100;48.700;9.316;2022-08-21T03:06:56;97757.9;;;16.32;100
17950;BME280;9100;48.700;9.316;2022-08-21T03:07:45;97749.59999999999;;;16.3;100
17950;BME280;9100;48.700;9.316;2022-08-21T03:08:45;97757.9;;;16.32;100
17950;BME280;9100;48.700;9.316;2022-08-21T03:09:44;97754.7;;;16.3;100
17950;BME280;9100;48.700;9.316;2022-08-21T03:10:46;97750;;;16.27;100
17950;BME280;9100;48.700;9.316;2022-08-21T03:11:45;97757.1;;;16.25;100
17950;BME280;9100;48.700;9.316;2022-08-21T03:11:56;97754;;;16.23;100
17950;BME280;9100;48.700;9.316;2022-08-21T03:12:45;97755.2;;;16.2;100
17950;BME280;9100;48.700;9.316;2022-08-21T03:13:45;97747.1;;;16.17;100
17950;BME280;9100;48.700;9.316;2022-08-21T03:14:45;97751.70000000001;;;16.15;100
17950;BME280;9100;48.700;9.316;2022-08-21T03:15:44;97744.3;;;16.12;100
17950;BME280;9100;48.700;9.316;2022-08-21T03:16:45;97746.90000000001;;;16.12;100
17950;BME280;9100;48.700;9.316;2022-08-21T03:16:56;97744.3;;;16.12;100
17950;BME280;9100;48.700;9.316;2022-08-21T03:17:45;97744.1;;;16.13;100
17950;BME280;9100;48.700;9.316;2022-08-21T03:18:45;97741.4;;;16.15;100
17950;BME280;9100;48.700;9.316;2022-08-21T03:19:44;97744.7;;;16.15;100
17950;BME280;9100;48.700;9.316;2022-08-21T03:20:45;97737.2;;;16.14;100
17950;BME280;9100;48.700;9.316;2022-08-21T03:21:45;97742.6;;;16.12;100
17950;BME280;9100;48.700;9.316;2022-08-21T03:21:56;97747.7;;;16.12;100
17950;BME280;9100;48.700;9.316;2022-08-21T03:22:45;97747.7;;;16.12;100
17950;BME280;9100;48.700;9.316;2022-08-21T03:23:45;97746.2;;;16.11;100
17950;BME280;9100;48.700;9.316;2022-08-21T03:24:45;97743.6;;;16.11;100
17950;BME280;9100;48.700;9.316;2022-08-21T03:25:45;97742;;;16.1;100
17950;BME280;9100;48.700;9.316;2022-08-21T03:26:45;97748.1;;;16.09;100
17950;BME280;9100;48.700;9.316;2022-08-21T03:26:56;97744.6;;;16.1;100
17950;BME280;9100;48.700;9.316;2022-08-21T03:27:45;97746.90000000001;;;16.12;100
17950;BME280;9100;48.700;9.316;2022-08-21T03:28:45;97751.09999999999;;;16.13;100
17950;BME280;9100;48.700;9.316;2022-08-21T03:29:44;97742.6;;;16.12;100
17950;BME280;9100;48.700;9.316;2022-08-21T03:30:45;97754.5;;;16.13;100
17950;BME280;9100;48.700;9.316;2022-08-21T03:31:44;97750.9;;;16.14;100
17950;BME280;9100;48.700;9.316;2022-08-21T03:31:56;97748.5;;;16.13;100
17950;BME280;9100;48.700;9.316;2022-08-21T03:32:44;97739.4;;;16.1;100
17950;BME280;9100;48.700;9.316;2022-08-21T03:33:44;97744.5;;;16.17;100
17950;BME280;9100;48.700;9.316;2022-08-21T03:34:45;97745.3;;;16.17;100
17950;BME280;9100;48.700;9.316;2022-08-21T03:35:45;97744.7;;;16.15;100
17950;BME280;9100;48.700;9.316;2022-08-21T03:36:45;97750.9;;;16.14;100
17950;BME280;9100;48.700;9.316;2022-08-21T03:36:56;97751.70000000001;;;16.15;100
17950;BME280;9100;48.700;9.316;2022-08-21T03:37:44;97749.1;;;16.15;100
17950;BME280;9100;48.700;9.316;2022-08-21T03:38:44;97745.7;;;16.14;100
17950;BME280;9100;48.700;9.316;2022-08-21T03:39:44;97744.9;;;16.14;100
17950;BME280;9100;48.700;9.316;2022-08-21T03:40:44;97738.2;;;16.13;100
17950;BME280;9100;48.700;9.316;2022-08-21T03:41:44;97744.6;;;16.1;100
17950;BME280;9100;48.700;9.316;2022-08-21T03:41:56;97751.3;;;16.11;100
17950;BME280;9100;48.700;9.316;2022-08-21T03:42:45;97747.7;;;16.12;100
17950;BME280;9100;48.700;9.316;2022-08-21T03:43:45;97749.5;;;16.12;100
17950;BME280;9100;48.700;9.316;2022-08-21T03:44:44;97752.09999999999;;;16.12;100
17950;BME280;9100;48.700;9.316;2022-08-21T03:45:44;97740.20000000001;;;16.11;100
17950;BME280;9100;48.700;9.316;2022-08-21T03:46:44;97747.1;;;16.1;100
17950;BME280;9100;48.700;9.316;2022-08-21T03:46:56;97744.6;;;16.1;100
17950;BME280;9100;48.700;9.316;2022-08-21T03:47:53;97747.1;;;16.1;100
17950;BME280;9100;48.700;9.316;2022-08-21T03:48:44;97752.09999999999;;;16.12;100
17950;BME280;9100;48.700;9.316;2022-08-21T03:49:44;97747.7;;;16.12;100
17950;BME280;9100;48.700;9.316;2022-08-21T03:50:44;97741;;;16.11;100
17950;BME280;9100;48.700;9.316;2022-08-21T03:51:45;97739.4;;;16.1;100
17950;BME280;9100;48.700;9.316;2022-08-21T03:51:56;97747.1;;;16.1;100
17950;BME280;9100;48.700;9.316;2022-08-21T03:52:44;97741.8;;;16.12;100
17950;BME280;9100;48.700;9.316;2022-08-21T03:53:44;97744.6;;;16.1;100
17950;BME280;9100;48.700;9.316;2022-08-21T03:54:45;97742;;;16.1;100
17950;BME280;9100;48.700;9.316;2022-08-21T03:55:45;97747.29999999999;;;16.09;100
17950;BME280;9100;48.700;9.316;2022-08-21T03:56:44;97743.4;;;16.06;100
17950;BME280;9100;48.700;9.316;2022-08-21T03:56:56;97750.2;;;16.07;100
17950;BME280;9100;48.700;9.316;2022-08-21T03:57:45;97747.29999999999;;;16.09;100
17950;BME280;9100;48.700;9.316;2022-08-21T03:58:45;97743.8;;;16.1;100
17950;BME280;9100;48.700;9.316;2022-08-21T03:59:44;97740.59999999999;;;16.08;100
17950;BME280;9100;48.700;9.316;2022-08-21T04:00:45;97749.1;;;16.08;100
17950;BME280;9100;48.700;9.316;2022-08-21T04:01:50;97744;;;16.08;100
17950;BME280;9100;48.700;9.316;2022-08-21T04:01:57;97742.4;;;16.07;100
17950;BME280;9100;48.700;9.316;2022-08-21T04:02:45;97741.4;;;16.08;100
17950;BME280;9100;48.700;9.316;2022-08-21T04:03:45;97741.4;;;16.08;100
17950;BME280;9100;48.700;9.316;2022-08-21T04:04:44;97743.4;;;16.06;100
17950;BME280;9100;48.700;9.316;2022-08-21T04:05:45;97743.8;;;16.03;100
17950;BME280;9100;48.700;9.316;2022-08-21T04:06:45;97741.7;;;16;100
17950;BME280;9100;48.700;9.316;2022-08-21T04:06:56;97733.2;;;15.99;100
17950;BME280;9100;48.700;9.316;2022-08-21T04:07:44;97739.9;;;16;100
17950;BME280;9100;48.700;9.316;2022-08-21T04:08:44;97740.3;;;15.97;100
17950;BME280;9100;48.700;9.316;2022-08-21T04:09:45;97741.5;;;15.95;100
17950;BME280;9100;48.700;9.316;2022-08-21T04:10:45;97741.7;;;15.93;100
17950;BME280;9100;48.700;9.316;2022-08-21T04:11:45;97739.4;;;15.92;100
17950;BME280;9100;48.700;9.316;2022-08-21T04:11:56;97744.5;;;15.92;100
17950;BME280;9100;48.700;9.316;2022-08-21T04:12:45;97743.5;;;15.93;100
17950;BME280;9100;48.700;9.316;2022-08-21T04:13:45;97743.5;;;15.93;100
17950;BME280;9100;48.700;9.316;2022-08-21T04:14:44;97736;;;15.91;100
17950;BME280;9100;48.700;9.316;2022-08-21T04:15:44;97746.3;;;15.91;100
17950;BME280;9100;48.700;9.316;2022-08-21T04:16:45;97746.7;;;15.88;100
17950;BME280;9100;48.700;9.316;2022-08-21T04:16:56;97745.9;;;15.88;100
17950;BME280;9100;48.700;9.316;2022-08-21T04:17:44;97748.5;;;15.88;100
17950;BME280;9100;48.700;9.316;2022-08-21T04:18:45;97754.7;;;15.87;100
17950;BME280;9100;48.700;9.316;2022-08-21T04:19:44;97748.90000000001;;;15.85;100
17950;BME280;9100;48.700;9.316;2022-08-21T04:20:45;97750.5;;;15.86;100
17950;BME280;9100;48.700;9.316;2022-08-21T04:21:45;97748.7;;;15.86;100
17950;BME280;9100;48.700;9.316;2022-08-21T04:21:56;97692.7;;;15.5;100
17950;BME280;9100;48.700;9.316;2022-08-21T04:22:45;97754.5;;;15.88;100
17950;BME280;9100;48.700;9.316;2022-08-21T04:23:44;97756.2;;;15.88;100
17950;BME280;9100;48.700;9.316;2022-08-21T04:24:44;97756.7;;;15.85;100
17950;BME280;9100;48.700;9.316;2022-08-21T04:25:44;97753.5;;;15.83;100
17950;BME280;9100;48.700;9.316;2022-08-21T04:26:45;97754.9;;;15.79;100
17950;BME280;9100;48.700;9.316;2022-08-21T04:26:56;97754.1;;;15.78;100
17950;BME280;9100;48.700;9.316;2022-08-21T04:27:45;97755.9;;;15.78;100
17950;BME280;9100;48.700;9.316;2022-08-21T04:28:44;97756.9;;;15.77;100
17950;BME280;9100;48.700;9.316;2022-08-21T04:29:44;97752.20000000001;;;15.74;100
17950;BME280;9100;48.700;9.316;2022-08-21T04:30:44;97761.90000000001;;;15.72;100
17950;BME280;9100;48.700;9.316;2022-08-21T04:31:45;97763.9;;;15.7;100
17950;BME280;9100;48.700;9.316;2022-08-21T04:31:56;97768.5;;;15.68;100
17950;BME280;9100;48.700;9.316;2022-08-21T04:32:45;97764.09999999999;;;15.68;100
17950;BME280;9100;48.700;9.316;2022-08-21T04:33:44;97769.1;;;15.7;100